sensor_id;sensor_type;location;lat;lon;timestamp;temperature;humidity
17092;DHT22;8661;45.700;4.880;2023-09-30T00:02:25;21.40;95.10
17092;DHT22;8661;45.700;4.880;2023-09-30T00:04:52;21.40;95.30
17092;DHT22;8661;45.700;4.880;2023-09-30T00:07:19;21.30;95.50
17092;DHT22;8661;45.700;4.880;2023-09-30T00:09:47;21.30;95.50
17092;DHT22;8661;45.700;4.880;2023-09-30T00:12:16;21.30;95.60
17092;DHT22;8661;45.700;4.880;2023-09-30T00:14:43;21.30;95.70
17092;DHT22;8661;45.700;4.880;2023-09-30T00:17:09;21.30;95.80
17092;DHT22;8661;45.700;4.880;2023-09-30T00:19:36;21.30;95.90
17092;DHT22;8661;45.700;4.880;2023-09-30T00:22:03;21.20;96.00
17092;DHT22;8661;45.700;4.880;2023-09-30T00:24:30;21.20;96.00
17092;DHT22;8661;45.700;4.880;2023-09-30T00:26:57;21.20;96.00
17092;DHT22;8661;45.700;4.880;2023-09-30T00:29:25;21.20;96.00
17092;DHT22;8661;45.700;4.880;2023-09-30T00:31:53;21.20;96.10
17092;DHT22;8661;45.700;4.880;2023-09-30T00:34:19;21.20;96.20
17092;DHT22;8661;45.700;4.880;2023-09-30T00:36:46;21.20;96.30
17092;DHT22;8661;45.700;4.880;2023-09-30T00:39:14;21.10;96.40
17092;DHT22;8661;45.700;4.880;2023-09-30T00:41:40;21.10;96.90
17092;DHT22;8661;45.700;4.880;2023-09-30T00:44:07;21.10;96.90
17092;DHT22;8661;45.700;4.880;2023-09-30T00:46:37;21.10;96.80
17092;DHT22;8661;45.700;4.880;2023-09-30T00:49:07;21.20;97.10
17092;DHT22;8661;45.700;4.880;2023-09-30T00:51:35;21.10;97.10
17092;DHT22;8661;45.700;4.880;2023-09-30T00:54:03;21.10;97.10
17092;DHT22;8661;45.700;4.880;2023-09-30T00:56:32;21.10;97.10
17092;DHT22;8661;45.700;4.880;2023-09-30T00:59:00;21.10;97.00
17092;DHT22;8661;45.700;4.880;2023-09-30T01:01:27;21.10;97.10
17092;DHT22;8661;45.700;4.880;2023-09-30T01:03:56;21.10;97.20
17092;DHT22;8661;45.700;4.880;2023-09-30T01:06:24;21.10;97.20
17092;DHT22;8661;45.700;4.880;2023-09-30T01:08:51;21.00;97.20
17092;DHT22;8661;45.700;4.880;2023-09-30T01:11:18;21.00;97.60
17092;DHT22;8661;45.700;4.880;2023-09-30T01:13:46;20.90;98.00
17092;DHT22;8661;45.700;4.880;2023-09-30T01:16:15;21.00;98.00
17092;DHT22;8661;45.700;4.880;2023-09-30T01:18:42;20.90;98.00
17092;DHT22;8661;45.700;4.880;2023-09-30T01:21:10;20.90;98.20
17092;DHT22;8661;45.700;4.880;2023-09-30T01:23:39;20.90;98.30
17092;DHT22;8661;45.700;4.880;2023-09-30T01:26:07;20.90;98.40
17092;DHT22;8661;45.700;4.880;2023-09-30T01:28:35;20.80;98.80
17092;DHT22;8661;45.700;4.880;2023-09-30T01:31:02;20.80;98.90
17092;DHT22;8661;45.700;4.880;2023-09-30T01:33:30;20.90;99.20
17092;DHT22;8661;45.700;4.880;2023-09-30T01:35:57;20.80;99.20
17092;DHT22;8661;45.700;4.880;2023-09-30T01:38:25;20.80;99.30
17092;DHT22;8661;45.700;4.880;2023-09-30T01:40:53;20.80;99.50
17092;DHT22;8661;45.700;4.880;2023-09-30T01:43:20;20.80;99.70
17092;DHT22;8661;45.700;4.880;2023-09-30T01:45:47;20.80;99.50
17092;DHT22;8661;45.700;4.880;2023-09-30T01:48:14;20.80;99.60
17092;DHT22;8661;45.700;4.880;2023-09-30T01:50:41;20.70;99.60
17092;DHT22;8661;45.700;4.880;2023-09-30T01:53:08;20.70;99.70
17092;DHT22;8661;45.700;4.880;2023-09-30T01:55:35;20.70;99.90
17092;DHT22;8661;45.700;4.880;2023-09-30T01:58:03;20.60;99.90
17092;DHT22;8661;45.700;4.880;2023-09-30T02:00:30;20.60;99.90
17092;DHT22;8661;45.700;4.880;2023-09-30T02:02:57;20.60;99.90
17092;DHT22;8661;45.700;4.880;2023-09-30T02:05:24;20.60;99.90
17092;DHT22;8661;45.700;4.880;2023-09-30T02:07:51;20.50;99.90
17092;DHT22;8661;45.700;4.880;2023-09-30T02:10:18;20.50;99.90
17092;DHT22;8661;45.700;4.880;2023-09-30T02:12:45;20.50;99.90
17092;DHT22;8661;45.700;4.880;2023-09-30T02:15:14;20.40;99.90
17092;DHT22;8661;45.700;4.880;2023-09-30T02:17:41;20.40;99.90
17092;DHT22;8661;45.700;4.880;2023-09-30T02:20:11;20.20;99.90
17092;DHT22;8661;45.700;4.880;2023-09-30T02:22:42;20.10;99.90
17092;DHT22;8661;45.700;4.880;2023-09-30T02:25:10;20.00;99.90
17092;DHT22;8661;45.700;4.880;2023-09-30T02:27:39;20.00;99.90
17092;DHT22;8661;45.700;4.880;2023-09-30T02:30:08;19.90;99.90
17092;DHT22;8661;45.700;4.880;2023-09-30T02:32:37;19.80;99.90
17092;DHT22;8661;45.700;4.880;2023-09-30T02:35:05;19.80;99.90
17092;DHT22;8661;45.700;4.880;2023-09-30T02:37:32;19.70;99.90
17092;DHT22;8661;45.700;4.880;2023-09-30T02:40:02;19.70;99.90
17092;DHT22;8661;45.700;4.880;2023-09-30T02:42:30;19.60;99.90
17092;DHT22;8661;45.700;4.880;2023-09-30T02:44:59;19.50;99.90
17092;DHT22;8661;45.700;4.880;2023-09-30T02:47:26;19.40;99.90
17092;DHT22;8661;45.700;4.880;2023-09-30T02:49:56;19.40;99.90
17092;DHT22;8661;45.700;4.880;2023-09-30T02:52:23;19.30;99.90
17092;DHT22;8661;45.700;4.880;2023-09-30T02:54:50;19.20;99.90
17092;DHT22;8661;45.700;4.880;2023-09-30T02:57:17;19.20;99.90
17092;DHT22;8661;45.700;4.880;2023-09-30T02:59:44;19.10;99.90
17092;DHT22;8661;45.700;4.880;2023-09-30T03:02:11;19.10;99.90
17092;DHT22;8661;45.700;4.880;2023-09-30T03:04:38;19.00;99.90
17092;DHT22;8661;45.700;4.880;2023-09-30T03:07:07;18.90;99.90
17092;DHT22;8661;45.700;4.880;2023-09-30T03:09:34;18.90;99.90
17092;DHT22;8661;45.700;4.880;2023-09-30T03:12:02;18.80;99.90
17092;DHT22;8661;45.700;4.880;2023-09-30T03:14:30;18.80;99.90
17092;DHT22;8661;45.700;4.880;2023-09-30T03:16:57;18.70;99.90
17092;DHT22;8661;45.700;4.880;2023-09-30T03:19:24;18.70;99.90
17092;DHT22;8661;45.700;4.880;2023-09-30T03:21:51;18.60;99.90
17092;DHT22;8661;45.700;4.880;2023-09-30T03:24:19;18.60;99.90
17092;DHT22;8661;45.700;4.880;2023-09-30T03:26:47;18.50;99.90
17092;DHT22;8661;45.700;4.880;2023-09-30T03:29:13;18.50;99.90
17092;DHT22;8661;45.700;4.880;2023-09-30T03:31:40;18.50;99.90
17092;DHT22;8661;45.700;4.880;2023-09-30T03:34:07;18.40;99.90
17092;DHT22;8661;45.700;4.880;2023-09-30T03:36:34;18.40;99.90
17092;DHT22;8661;45.700;4.880;2023-09-30T03:39:01;18.30;99.90
17092;DHT22;8661;45.700;4.880;2023-09-30T03:41:34;18.30;99.90
17092;DHT22;8661;45.700;4.880;2023-09-30T03:44:02;18.20;99.90
17092;DHT22;8661;45.700;4.880;2023-09-30T03:46:29;18.20;99.90
17092;DHT22;8661;45.700;4.880;2023-09-30T03:48:56;18.20;99.90
17092;DHT22;8661;45.700;4.880;2023-09-30T03:51:24;18.20;99.90
17092;DHT22;8661;45.700;4.880;2023-09-30T03:53:51;18.20;99.90
17092;DHT22;8661;45.700;4.880;2023-09-30T03:56:18;18.10;99.90
17092;DHT22;8661;45.700;4.880;2023-09-30T03:58:49;18.10;99.90
17092;DHT22;8661;45.700;4.880;2023-09-30T04:01:17;18.10;99.90
17092;DHT22;8661;45.700;4.880;2023-09-30T04:03:45;18.10;99.90
17092;DHT22;8661;45.700;4.880;2023-09-30T04:06:12;18.00;99.90
17092;DHT22;8661;45.700;4.880;2023-09-30T04:08:39;18.00;99.90
17092;DHT22;8661;45.700;4.880;2023-09-30T04:11:09;18.00;99.90
17092;DHT22;8661;45.700;4.880;2023-09-30T04:13:42;18.00;99.90
17092;DHT22;8661;45.700;4.880;2023-09-30T04:16:10;18.00;99.90
17092;DHT22;8661;45.700;4.880;2023-09-30T04:18:37;18.00;99.90
17092;DHT22;8661;45.700;4.880;2023-09-30T04:21:05;18.00;99.90
17092;DHT22;8661;45.700;4.880;2023-09-30T04:23:33;18.10;99.90
17092;DHT22;8661;45.700;4.880;2023-09-30T04:26:02;18.10;99.90
17092;DHT22;8661;45.700;4.880;2023-09-30T04:28:29;18.10;99.90
17092;DHT22;8661;45.700;4.880;2023-09-30T04:30:56;18.20;99.90
17092;DHT22;8661;45.700;4.880;2023-09-30T04:33:25;18.20;99.90
17092;DHT22;8661;45.700;4.880;2023-09-30T04:35:52;18.30;99.90
17092;DHT22;8661;45.700;4.880;2023-09-30T04:38:19;18.30;99.90
17092;DHT22;8661;45.700;4.880;2023-09-30T04:40:46;18.30;99.90
17092;DHT22;8661;45.700;4.880;2023-09-30T04:43:17;18.30;99.90
17092;DHT22;8661;45.700;4.880;2023-09-30T04:45:43;18.30;99.90
17092;DHT22;8661;45.700;4.880;2023-09-30T04:48:10;18.30;99.90
17092;DHT22;8661;45.700;4.880;2023-09-30T04:50:40;18.30;99.90
17092;DHT22;8661;45.700;4.880;2023-09-30T04:53:07;18.30;99.90
17092;DHT22;8661;45.700;4.880;2023-09-30T04:55:34;18.30;99.90
17092;DHT22;8661;45.700;4.880;2023-09-30T04:58:03;18.30;99.90
17092;DHT22;8661;45.700;4.880;2023-09-30T05:00:30;18.30;99.90
17092;DHT22;8661;45.700;4.880;2023-09-30T05:02:57;18.30;99.90
17092;DHT22;8661;45.700;4.880;2023-09-30T05:05:25;18.20;99.90
17092;DHT22;8661;45.700;4.880;2023-09-30T05:07:53;18.20;99.90
17092;DHT22;8661;45.700;4.880;2023-09-30T05:10:20;18.30;99.90
17092;DHT22;8661;45.700;4.880;2023-09-30T05:12:48;18.20;99.90
17092;DHT22;8661;45.700;4.880;2023-09-30T05:15:15;18.20;99.90
17092;DHT22;8661;45.700;4.880;2023-09-30T05:17:42;18.20;99.90
17092;DHT22;8661;45.700;4.880;2023-09-30T05:20:10;18.10;99.90
17092;DHT22;8661;45.700;4.880;2023-09-30T05:22:38;18.00;99.90
17092;DHT22;8661;45.700;4.880;2023-09-30T05:25:07;18.00;99.90
17092;DHT22;8661;45.700;4.880;2023-09-30T05:27:34;18.00;99.90
17092;DHT22;8661;45.700;4.880;2023-09-30T05:30:01;18.00;99.90
17092;DHT22;8661;45.700;4.880;2023-09-30T05:32:28;17.90;99.90
17092;DHT22;8661;45.700;4.880;2023-09-30T05:34:56;17.90;99.90
17092;DHT22;8661;45.700;4.880;2023-09-30T05:37:24;17.90;99.90
17092;DHT22;8661;45.700;4.880;2023-09-30T05:39:51;17.80;99.90
17092;DHT22;8661;45.700;4.880;2023-09-30T05:42:20;17.80;99.90
17092;DHT22;8661;45.700;4.880;2023-09-30T05:44:47;17.80;99.90
17092;DHT22;8661;45.700;4.880;2023-09-30T05:47:14;17.70;99.90
17092;DHT22;8661;45.700;4.880;2023-09-30T05:49:55;17.70;99.90
17092;DHT22;8661;45.700;4.880;2023-09-30T05:52:22;17.70;99.90
17092;DHT22;8661;45.700;4.880;2023-09-30T05:54:49;17.70;99.90
17092;DHT22;8661;45.700;4.880;2023-09-30T05:57:16;17.80;99.90
17092;DHT22;8661;45.700;4.880;2023-09-30T05:59:44;17.70;99.90
17092;DHT22;8661;45.700;4.880;2023-09-30T06:02:11;17.90;99.90
17092;DHT22;8661;45.700;4.880;2023-09-30T06:04:39;17.90;99.90
17092;DHT22;8661;45.700;4.880;2023-09-30T06:07:08;18.00;99.90
17092;DHT22;8661;45.700;4.880;2023-09-30T06:09:36;18.00;99.90
17092;DHT22;8661;45.700;4.880;2023-09-30T06:12:03;18.10;99.90
17092;DHT22;8661;45.700;4.880;2023-09-30T06:14:32;18.10;99.90
17092;DHT22;8661;45.700;4.880;2023-09-30T06:17:00;18.20;99.90
17092;DHT22;8661;45.700;4.880;2023-09-30T06:19:27;18.30;99.90
17092;DHT22;8661;45.700;4.880;2023-09-30T06:21:54;18.40;99.90
17092;DHT22;8661;45.700;4.880;2023-09-30T06:24:22;18.60;99.90
17092;DHT22;8661;45.700;4.880;2023-09-30T06:26:49;18.70;99.90
17092;DHT22;8661;45.700;4.880;2023-09-30T06:29:17;18.80;99.90
17092;DHT22;8661;45.700;4.880;2023-09-30T06:31:45;18.90;99.90
17092;DHT22;8661;45.700;4.880;2023-09-30T06:34:13;19.00;99.90
17092;DHT22;8661;45.700;4.880;2023-09-30T06:36:40;19.10;99.90
17092;DHT22;8661;45.700;4.880;2023-09-30T06:39:07;19.20;99.90
17092;DHT22;8661;45.700;4.880;2023-09-30T06:41:34;19.10;99.90
17092;DHT22;8661;45.700;4.880;2023-09-30T06:44:01;19.20;99.90
17092;DHT22;8661;45.700;4.880;2023-09-30T06:46:28;19.30;99.90
17092;DHT22;8661;45.700;4.880;2023-09-30T06:48:55;19.30;99.90
17092;DHT22;8661;45.700;4.880;2023-09-30T06:51:23;19.40;99.90
17092;DHT22;8661;45.700;4.880;2023-09-30T06:53:52;19.50;99.90
17092;DHT22;8661;45.700;4.880;2023-09-30T06:56:19;19.60;99.90
17092;DHT22;8661;45.700;4.880;2023-09-30T06:58:46;19.80;99.90
17092;DHT22;8661;45.700;4.880;2023-09-30T07:01:15;20.00;99.90
17092;DHT22;8661;45.700;4.880;2023-09-30T07:03:43;20.40;99.90
17092;DHT22;8661;45.700;4.880;2023-09-30T07:06:11;20.60;99.90
17092;DHT22;8661;45.700;4.880;2023-09-30T07:08:39;20.70;99.90
17092;DHT22;8661;45.700;4.880;2023-09-30T07:11:08;21.00;99.90
17092;DHT22;8661;45.700;4.880;2023-09-30T07:13:36;21.40;99.90
17092;DHT22;8661;45.700;4.880;2023-09-30T07:16:04;21.80;99.90
17092;DHT22;8661;45.700;4.880;2023-09-30T07:18:31;22.00;99.90
17092;DHT22;8661;45.700;4.880;2023-09-30T07:20:58;22.50;99.90
17092;DHT22;8661;45.700;4.880;2023-09-30T07:23:25;23.00;99.90
17092;DHT22;8661;45.700;4.880;2023-09-30T07:25:53;23.10;99.90
17092;DHT22;8661;45.700;4.880;2023-09-30T07:28:20;23.20;99.90
17092;DHT22;8661;45.700;4.880;2023-09-30T07:30:47;23.60;99.60
17092;DHT22;8661;45.700;4.880;2023-09-30T07:33:14;24.40;97.70
17092;DHT22;8661;45.700;4.880;2023-09-30T07:35:41;25.00;95.50
17092;DHT22;8661;45.700;4.880;2023-09-30T07:38:08;25.20;94.30
17092;DHT22;8661;45.700;4.880;2023-09-30T07:40:34;25.50;93.50
17092;DHT22;8661;45.700;4.880;2023-09-30T07:43:03;25.60;92.80
17092;DHT22;8661;45.700;4.880;2023-09-30T07:45:30;25.70;92.70
17092;DHT22;8661;45.700;4.880;2023-09-30T07:47:57;25.80;92.30
17092;DHT22;8661;45.700;4.880;2023-09-30T07:50:24;26.00;92.20
17092;DHT22;8661;45.700;4.880;2023-09-30T07:52:51;26.10;92.20
17092;DHT22;8661;45.700;4.880;2023-09-30T07:55:18;26.30;91.60
17092;DHT22;8661;45.700;4.880;2023-09-30T07:57:45;26.60;91.00
17092;DHT22;8661;45.700;4.880;2023-09-30T08:00:14;26.70;90.70
17092;DHT22;8661;45.700;4.880;2023-09-30T08:02:42;26.70;90.50
17092;DHT22;8661;45.700;4.880;2023-09-30T08:05:09;26.80;90.40
17092;DHT22;8661;45.700;4.880;2023-09-30T08:07:40;26.70;90.70
17092;DHT22;8661;45.700;4.880;2023-09-30T08:10:08;26.60;90.30
17092;DHT22;8661;45.700;4.880;2023-09-30T08:12:38;26.30;90.20
17092;DHT22;8661;45.700;4.880;2023-09-30T08:15:06;26.30;90.70
17092;DHT22;8661;45.700;4.880;2023-09-30T08:17:35;26.10;90.40
17092;DHT22;8661;45.700;4.880;2023-09-30T08:20:02;26.10;90.70
17092;DHT22;8661;45.700;4.880;2023-09-30T08:22:30;26.10;90.70
17092;DHT22;8661;45.700;4.880;2023-09-30T08:24:56;26.30;90.50
17092;DHT22;8661;45.700;4.880;2023-09-30T08:27:24;26.30;90.60
17092;DHT22;8661;45.700;4.880;2023-09-30T08:29:51;26.30;90.50
17092;DHT22;8661;45.700;4.880;2023-09-30T08:32:18;26.30;90.10
17092;DHT22;8661;45.700;4.880;2023-09-30T08:34:46;26.50;89.10
17092;DHT22;8661;45.700;4.880;2023-09-30T08:37:13;26.50;90.00
17092;DHT22;8661;45.700;4.880;2023-09-30T08:39:40;26.40;88.50
17092;DHT22;8661;45.700;4.880;2023-09-30T08:42:09;26.50;89.00
17092;DHT22;8661;45.700;4.880;2023-09-30T08:44:37;26.70;87.80
17092;DHT22;8661;45.700;4.880;2023-09-30T08:47:06;26.80;87.10
17092;DHT22;8661;45.700;4.880;2023-09-30T08:49:34;26.90;87.20
17092;DHT22;8661;45.700;4.880;2023-09-30T08:52:05;27.30;85.90
17092;DHT22;8661;45.700;4.880;2023-09-30T08:54:32;27.40;84.70
17092;DHT22;8661;45.700;4.880;2023-09-30T08:57:00;27.80;84.20
17092;DHT22;8661;45.700;4.880;2023-09-30T08:59:29;28.00;83.40
17092;DHT22;8661;45.700;4.880;2023-09-30T09:01:56;28.20;82.30
17092;DHT22;8661;45.700;4.880;2023-09-30T09:04:24;28.50;81.90
17092;DHT22;8661;45.700;4.880;2023-09-30T09:06:53;28.80;80.70
17092;DHT22;8661;45.700;4.880;2023-09-30T09:09:21;29.10;79.20
17092;DHT22;8661;45.700;4.880;2023-09-30T09:11:49;29.40;77.60
17092;DHT22;8661;45.700;4.880;2023-09-30T09:14:16;29.80;78.20
17092;DHT22;8661;45.700;4.880;2023-09-30T09:16:53;30.10;76.60
17092;DHT22;8661;45.700;4.880;2023-09-30T09:19:21;30.20;75.40
17092;DHT22;8661;45.700;4.880;2023-09-30T09:21:55;30.40;75.10
17092;DHT22;8661;45.700;4.880;2023-09-30T09:24:30;30.70;72.80
17092;DHT22;8661;45.700;4.880;2023-09-30T09:27:11;31.20;70.70
17092;DHT22;8661;45.700;4.880;2023-09-30T09:29:41;31.70;69.70
17092;DHT22;8661;45.700;4.880;2023-09-30T09:32:10;31.70;69.30
17092;DHT22;8661;45.700;4.880;2023-09-30T09:34:37;32.00;68.40
17092;DHT22;8661;45.700;4.880;2023-09-30T09:37:14;32.30;67.20
17092;DHT22;8661;45.700;4.880;2023-09-30T09:39:50;32.30;65.10
17092;DHT22;8661;45.700;4.880;2023-09-30T09:42:25;32.40;64.80
17092;DHT22;8661;45.700;4.880;2023-09-30T09:44:55;32.60;65.00
17092;DHT22;8661;45.700;4.880;2023-09-30T09:47:24;32.80;64.10
17092;DHT22;8661;45.700;4.880;2023-09-30T09:49:51;33.10;63.40
17092;DHT22;8661;45.700;4.880;2023-09-30T09:52:19;33.20;62.20
17092;DHT22;8661;45.700;4.880;2023-09-30T09:54:46;33.40;62.60
17092;DHT22;8661;45.700;4.880;2023-09-30T09:57:16;33.70;60.80
17092;DHT22;8661;45.700;4.880;2023-09-30T09:59:44;34.00;60.50
17092;DHT22;8661;45.700;4.880;2023-09-30T10:02:13;34.10;60.70
17092;DHT22;8661;45.700;4.880;2023-09-30T10:04:41;34.30;60.80
17092;DHT22;8661;45.700;4.880;2023-09-30T10:07:12;34.60;59.80
17092;DHT22;8661;45.700;4.880;2023-09-30T10:09:43;34.90;59.00
17092;DHT22;8661;45.700;4.880;2023-09-30T10:12:15;35.10;58.40
17092;DHT22;8661;45.700;4.880;2023-09-30T10:14:42;35.40;57.40
17092;DHT22;8661;45.700;4.880;2023-09-30T10:17:10;35.30;57.00
17092;DHT22;8661;45.700;4.880;2023-09-30T10:20:03;35.20;57.10
17092;DHT22;8661;45.700;4.880;2023-09-30T10:22:30;35.30;56.00
17092;DHT22;8661;45.700;4.880;2023-09-30T10:24:58;35.10;56.80
17092;DHT22;8661;45.700;4.880;2023-09-30T10:27:31;35.20;56.50
17092;DHT22;8661;45.700;4.880;2023-09-30T10:30:09;35.30;57.00
17092;DHT22;8661;45.700;4.880;2023-09-30T10:33:07;35.70;57.00
17092;DHT22;8661;45.700;4.880;2023-09-30T10:35:45;36.00;55.00
17092;DHT22;8661;45.700;4.880;2023-09-30T10:38:40;36.00;56.00
17092;DHT22;8661;45.700;4.880;2023-09-30T10:41:10;35.80;54.80
17092;DHT22;8661;45.700;4.880;2023-09-30T10:43:42;35.80;56.00
17092;DHT22;8661;45.700;4.880;2023-09-30T10:46:30;35.60;56.10
17092;DHT22;8661;45.700;4.880;2023-09-30T10:49:14;35.40;54.40
17092;DHT22;8661;45.700;4.880;2023-09-30T10:51:43;35.30;55.10
17092;DHT22;8661;45.700;4.880;2023-09-30T10:54:12;35.20;55.70
17092;DHT22;8661;45.700;4.880;2023-09-30T10:56:39;35.40;54.80
17092;DHT22;8661;45.700;4.880;2023-09-30T10:59:08;35.50;55.10
17092;DHT22;8661;45.700;4.880;2023-09-30T11:01:35;35.30;55.00
17092;DHT22;8661;45.700;4.880;2023-09-30T11:04:03;35.20;54.50
17092;DHT22;8661;45.700;4.880;2023-09-30T11:06:31;35.10;54.90
17092;DHT22;8661;45.700;4.880;2023-09-30T11:09:00;35.10;54.90
17092;DHT22;8661;45.700;4.880;2023-09-30T11:11:35;34.90;54.80
17092;DHT22;8661;45.700;4.880;2023-09-30T11:14:03;34.50;55.30
17092;DHT22;8661;45.700;4.880;2023-09-30T11:16:41;34.50;55.70
17092;DHT22;8661;45.700;4.880;2023-09-30T11:19:08;34.50;55.10
17092;DHT22;8661;45.700;4.880;2023-09-30T11:21:35;34.60;55.00
17092;DHT22;8661;45.700;4.880;2023-09-30T11:24:03;34.60;54.80
17092;DHT22;8661;45.700;4.880;2023-09-30T11:26:32;34.60;54.90
17092;DHT22;8661;45.700;4.880;2023-09-30T11:29:05;34.70;55.50
17092;DHT22;8661;45.700;4.880;2023-09-30T11:31:32;34.60;55.30
17092;DHT22;8661;45.700;4.880;2023-09-30T11:34:01;34.80;55.20
17092;DHT22;8661;45.700;4.880;2023-09-30T11:36:30;34.90;55.30
17092;DHT22;8661;45.700;4.880;2023-09-30T11:38:58;35.10;55.00
17092;DHT22;8661;45.700;4.880;2023-09-30T11:41:33;35.20;54.80
17092;DHT22;8661;45.700;4.880;2023-09-30T11:44:02;35.10;54.90
17092;DHT22;8661;45.700;4.880;2023-09-30T11:46:33;35.50;54.60
17092;DHT22;8661;45.700;4.880;2023-09-30T11:49:24;35.60;54.60
17092;DHT22;8661;45.700;4.880;2023-09-30T11:51:52;35.50;53.40
17092;DHT22;8661;45.700;4.880;2023-09-30T11:54:19;35.90;53.80
17092;DHT22;8661;45.700;4.880;2023-09-30T11:56:47;36.00;53.60
17092;DHT22;8661;45.700;4.880;2023-09-30T11:59:17;36.00;53.50
17092;DHT22;8661;45.700;4.880;2023-09-30T12:01:48;36.20;54.00
17092;DHT22;8661;45.700;4.880;2023-09-30T12:04:16;36.00;54.20
17092;DHT22;8661;45.700;4.880;2023-09-30T12:06:45;36.10;54.00
17092;DHT22;8661;45.700;4.880;2023-09-30T12:09:13;36.00;54.10
17092;DHT22;8661;45.700;4.880;2023-09-30T12:11:41;36.00;53.60
17092;DHT22;8661;45.700;4.880;2023-09-30T12:14:10;36.10;53.50
17092;DHT22;8661;45.700;4.880;2023-09-30T12:16:38;36.40;54.00
17092;DHT22;8661;45.700;4.880;2023-09-30T12:19:07;36.40;52.80
17092;DHT22;8661;45.700;4.880;2023-09-30T12:21:35;36.50;52.90
17092;DHT22;8661;45.700;4.880;2023-09-30T12:24:02;36.10;52.40
17092;DHT22;8661;45.700;4.880;2023-09-30T12:26:30;36.00;53.20
17092;DHT22;8661;45.700;4.880;2023-09-30T12:28:57;35.80;53.30
17092;DHT22;8661;45.700;4.880;2023-09-30T12:31:24;35.70;53.40
17092;DHT22;8661;45.700;4.880;2023-09-30T12:33:51;35.70;53.50
17092;DHT22;8661;45.700;4.880;2023-09-30T12:36:20;35.80;53.60
17092;DHT22;8661;45.700;4.880;2023-09-30T12:38:49;36.10;53.10
17092;DHT22;8661;45.700;4.880;2023-09-30T12:41:16;36.00;53.40
17092;DHT22;8661;45.700;4.880;2023-09-30T12:43:45;36.00;54.20
17092;DHT22;8661;45.700;4.880;2023-09-30T12:46:12;35.80;53.50
17092;DHT22;8661;45.700;4.880;2023-09-30T12:48:40;35.50;53.50
17092;DHT22;8661;45.700;4.880;2023-09-30T12:51:07;35.60;53.30
17092;DHT22;8661;45.700;4.880;2023-09-30T12:53:37;35.40;53.60
17092;DHT22;8661;45.700;4.880;2023-09-30T12:56:06;35.40;53.80
17092;DHT22;8661;45.700;4.880;2023-09-30T12:58:33;35.00;54.40
17092;DHT22;8661;45.700;4.880;2023-09-30T13:00:59;34.70;54.30
17092;DHT22;8661;45.700;4.880;2023-09-30T13:03:26;34.50;54.50
17092;DHT22;8661;45.700;4.880;2023-09-30T13:05:54;34.40;55.00
17092;DHT22;8661;45.700;4.880;2023-09-30T13:08:21;34.10;54.80
17092;DHT22;8661;45.700;4.880;2023-09-30T13:10:48;33.50;55.40
17092;DHT22;8661;45.700;4.880;2023-09-30T13:13:17;33.60;55.80
17092;DHT22;8661;45.700;4.880;2023-09-30T13:15:44;33.50;55.70
17092;DHT22;8661;45.700;4.880;2023-09-30T13:18:11;33.60;56.10
17092;DHT22;8661;45.700;4.880;2023-09-30T13:20:38;33.90;56.00
17092;DHT22;8661;45.700;4.880;2023-09-30T13:23:05;34.10;56.10
17092;DHT22;8661;45.700;4.880;2023-09-30T13:25:31;34.30;55.30
17092;DHT22;8661;45.700;4.880;2023-09-30T13:27:59;34.50;54.90
17092;DHT22;8661;45.700;4.880;2023-09-30T13:30:28;34.50;55.00
17092;DHT22;8661;45.700;4.880;2023-09-30T13:32:55;34.50;55.20
17092;DHT22;8661;45.700;4.880;2023-09-30T13:35:22;34.70;55.00
17092;DHT22;8661;45.700;4.880;2023-09-30T13:37:50;34.70;54.40
17092;DHT22;8661;45.700;4.880;2023-09-30T13:40:17;34.20;54.60
17092;DHT22;8661;45.700;4.880;2023-09-30T13:42:44;34.00;54.70
17092;DHT22;8661;45.700;4.880;2023-09-30T13:45:12;34.00;54.90
17092;DHT22;8661;45.700;4.880;2023-09-30T13:47:40;34.00;55.40
17092;DHT22;8661;45.700;4.880;2023-09-30T13:50:08;33.70;55.60
17092;DHT22;8661;45.700;4.880;2023-09-30T13:52:35;33.50;55.50
17092;DHT22;8661;45.700;4.880;2023-09-30T13:55:03;33.50;55.80
17092;DHT22;8661;45.700;4.880;2023-09-30T13:57:30;33.50;55.70
17092;DHT22;8661;45.700;4.880;2023-09-30T13:59:57;33.40;56.10
17092;DHT22;8661;45.700;4.880;2023-09-30T14:02:24;33.50;55.80
17092;DHT22;8661;45.700;4.880;2023-09-30T14:04:52;33.60;56.10
17092;DHT22;8661;45.700;4.880;2023-09-30T14:07:20;33.60;55.30
17092;DHT22;8661;45.700;4.880;2023-09-30T14:09:47;33.70;55.70
17092;DHT22;8661;45.700;4.880;2023-09-30T14:12:14;33.50;56.00
17092;DHT22;8661;45.700;4.880;2023-09-30T14:14:41;33.30;56.50
17092;DHT22;8661;45.700;4.880;2023-09-30T14:17:08;33.10;56.60
17092;DHT22;8661;45.700;4.880;2023-09-30T14:19:36;33.20;56.90
17092;DHT22;8661;45.700;4.880;2023-09-30T14:22:05;33.10;56.40
17092;DHT22;8661;45.700;4.880;2023-09-30T14:24:33;32.90;56.70
17092;DHT22;8661;45.700;4.880;2023-09-30T14:27:01;32.60;57.00
17092;DHT22;8661;45.700;4.880;2023-09-30T14:29:28;32.70;57.20
17092;DHT22;8661;45.700;4.880;2023-09-30T14:31:55;32.80;57.20
17092;DHT22;8661;45.700;4.880;2023-09-30T14:34:23;32.90;57.00
17092;DHT22;8661;45.700;4.880;2023-09-30T14:36:50;32.70;56.80
17092;DHT22;8661;45.700;4.880;2023-09-30T14:39:19;32.50;57.00
17092;DHT22;8661;45.700;4.880;2023-09-30T14:41:46;32.20;57.50
17092;DHT22;8661;45.700;4.880;2023-09-30T14:44:13;32.10;57.40
17092;DHT22;8661;45.700;4.880;2023-09-30T14:46:40;32.00;57.70
17092;DHT22;8661;45.700;4.880;2023-09-30T14:49:07;31.80;58.20
17092;DHT22;8661;45.700;4.880;2023-09-30T14:51:34;31.20;58.90
17092;DHT22;8661;45.700;4.880;2023-09-30T14:54:02;30.90;59.80
17092;DHT22;8661;45.700;4.880;2023-09-30T14:56:31;30.90;60.00
17092;DHT22;8661;45.700;4.880;2023-09-30T14:58:58;30.80;60.20
17092;DHT22;8661;45.700;4.880;2023-09-30T15:01:25;30.60;60.60
17092;DHT22;8661;45.700;4.880;2023-09-30T15:03:52;30.50;61.90
17092;DHT22;8661;45.700;4.880;2023-09-30T15:06:19;30.20;60.80
17092;DHT22;8661;45.700;4.880;2023-09-30T15:08:50;30.00;61.40
17092;DHT22;8661;45.700;4.880;2023-09-30T15:11:16;30.00;61.60
17092;DHT22;8661;45.700;4.880;2023-09-30T15:13:45;29.90;62.00
17092;DHT22;8661;45.700;4.880;2023-09-30T15:16:17;29.70;62.50
17092;DHT22;8661;45.700;4.880;2023-09-30T15:18:45;29.60;62.80
17092;DHT22;8661;45.700;4.880;2023-09-30T15:21:12;29.40;62.90
17092;DHT22;8661;45.700;4.880;2023-09-30T15:23:39;29.30;63.10
17092;DHT22;8661;45.700;4.880;2023-09-30T15:26:06;29.40;63.20
17092;DHT22;8661;45.700;4.880;2023-09-30T15:28:33;29.50;62.80
17092;DHT22;8661;45.700;4.880;2023-09-30T15:31:02;29.80;62.40
17092;DHT22;8661;45.700;4.880;2023-09-30T15:33:29;30.60;61.20
17092;DHT22;8661;45.700;4.880;2023-09-30T15:35:56;31.20;59.80
17092;DHT22;8661;45.700;4.880;2023-09-30T15:38:22;31.10;59.40
17092;DHT22;8661;45.700;4.880;2023-09-30T15:40:54;30.10;60.50
17092;DHT22;8661;45.700;4.880;2023-09-30T15:43:23;29.40;62.10
17092;DHT22;8661;45.700;4.880;2023-09-30T15:45:52;29.00;63.20
17092;DHT22;8661;45.700;4.880;2023-09-30T15:48:20;28.80;63.70
17092;DHT22;8661;45.700;4.880;2023-09-30T15:50:48;28.50;64.20
17092;DHT22;8661;45.700;4.880;2023-09-30T15:53:17;28.30;64.70